Terminal Aerodrome Forecast
Issued by NWS Charleston, WV

Home | Current Version | Previous Version | Text Only | Print | Product List | Glossary On
Versions: 1 2 3 4 5 6 7 8 9 10 11 12 13 14 15 16 17 18 19 20 21 22 23 24 25 26 27 28 29 30 31 32 33
000
FTUS41 KRLX 221100
TAFPKB
TAF
KPKB 221129Z 2212/2312 VRB03KT 2SM BR FEW001
     FM221300 VRB03KT 6SM HZ SKC
     FM221600 19004KT P6SM SCT045
     FM222200 18003KT 6SM HZ FEW050
     FM230900 21005KT 6SM HZ SCT050
      AMD NOT SKED=

USA.gov is the U.S. government's official web portal to all federal, state and local government web resources and services.